sensor_id;sensor_type;location;lat;lon;timestamp;temperature;humidity
4960;DHT22;2495;48.200;11.532;2023-07-20T00:00:48;25.00;50.00
4960;DHT22;2495;48.200;11.532;2023-07-20T00:05:49;24.90;50.20
4960;DHT22;2495;48.200;11.532;2023-07-20T00:10:50;25.00;50.20
4960;DHT22;2495;48.200;11.532;2023-07-20T00:15:51;24.90;50.40
4960;DHT22;2495;48.200;11.532;2023-07-20T00:20:53;24.90;50.40
4960;DHT22;2495;48.200;11.532;2023-07-20T00:25:54;24.90;50.60
4960;DHT22;2495;48.200;11.532;2023-07-20T00:30:55;24.90;51.20
4960;DHT22;2495;48.200;11.532;2023-07-20T00:35:57;25.10;51.30
4960;DHT22;2495;48.200;11.532;2023-07-20T00:40:58;25.10;50.30
4960;DHT22;2495;48.200;11.532;2023-07-20T00:45:59;25.10;51.10
4960;DHT22;2495;48.200;11.532;2023-07-20T00:51:01;25.10;51.00
4960;DHT22;2495;48.200;11.532;2023-07-20T00:56:02;25.10;50.60
4960;DHT22;2495;48.200;11.532;2023-07-20T01:01:04;25.00;50.80
4960;DHT22;2495;48.200;11.532;2023-07-20T01:06:16;24.80;50.90
4960;DHT22;2495;48.200;11.532;2023-07-20T01:11:30;24.60;51.60
4960;DHT22;2495;48.200;11.532;2023-07-20T01:16:29;24.50;51.90
4960;DHT22;2495;48.200;11.532;2023-07-20T01:33:00;24.30;52.30
4960;DHT22;2495;48.200;11.532;2023-07-20T01:38:01;24.40;52.50
4960;DHT22;2495;48.200;11.532;2023-07-20T01:43:02;24.60;51.20
4960;DHT22;2495;48.200;11.532;2023-07-20T01:48:04;24.40;50.50
4960;DHT22;2495;48.200;11.532;2023-07-20T01:53:05;24.40;50.90
4960;DHT22;2495;48.200;11.532;2023-07-20T01:58:06;24.30;50.50
4960;DHT22;2495;48.200;11.532;2023-07-20T02:03:08;24.40;50.60
4960;DHT22;2495;48.200;11.532;2023-07-20T02:08:09;24.30;50.60
4960;DHT22;2495;48.200;11.532;2023-07-20T02:13:10;24.30;50.80
4960;DHT22;2495;48.200;11.532;2023-07-20T02:18:11;24.30;51.10
4960;DHT22;2495;48.200;11.532;2023-07-20T02:23:13;24.40;51.80
4960;DHT22;2495;48.200;11.532;2023-07-20T02:28:14;24.50;51.60
4960;DHT22;2495;48.200;11.532;2023-07-20T02:33:16;24.50;52.30
4960;DHT22;2495;48.200;11.532;2023-07-20T02:38:17;24.50;51.90
4960;DHT22;2495;48.200;11.532;2023-07-20T02:43:19;24.50;52.50
4960;DHT22;2495;48.200;11.532;2023-07-20T02:48:20;24.60;52.50
4960;DHT22;2495;48.200;11.532;2023-07-20T02:53:21;24.70;51.60
4960;DHT22;2495;48.200;11.532;2023-07-20T02:58:22;24.60;51.60
4960;DHT22;2495;48.200;11.532;2023-07-20T03:03:24;24.30;52.20
4960;DHT22;2495;48.200;11.532;2023-07-20T03:08:25;24.40;51.70
4960;DHT22;2495;48.200;11.532;2023-07-20T03:13:26;24.40;52.50
4960;DHT22;2495;48.200;11.532;2023-07-20T03:18:27;24.40;51.60
4960;DHT22;2495;48.200;11.532;2023-07-20T03:23:29;24.30;51.60
4960;DHT22;2495;48.200;11.532;2023-07-20T03:28:30;24.10;52.20
4960;DHT22;2495;48.200;11.532;2023-07-20T03:33:31;24.10;51.50
4960;DHT22;2495;48.200;11.532;2023-07-20T03:38:33;24.10;52.00
4960;DHT22;2495;48.200;11.532;2023-07-20T03:43:35;24.00;51.50
4960;DHT22;2495;48.200;11.532;2023-07-20T03:48:36;24.00;50.30
4960;DHT22;2495;48.200;11.532;2023-07-20T03:53:37;23.80;50.10
4960;DHT22;2495;48.200;11.532;2023-07-20T03:58:38;23.80;51.20
4960;DHT22;2495;48.200;11.532;2023-07-20T04:03:40;23.90;50.40
4960;DHT22;2495;48.200;11.532;2023-07-20T04:08:42;23.90;50.90
4960;DHT22;2495;48.200;11.532;2023-07-20T04:13:43;23.90;50.10
4960;DHT22;2495;48.200;11.532;2023-07-20T04:18:44;23.80;50.50
4960;DHT22;2495;48.200;11.532;2023-07-20T04:23:46;23.70;50.30
4960;DHT22;2495;48.200;11.532;2023-07-20T04:28:47;23.60;50.80
4960;DHT22;2495;48.200;11.532;2023-07-20T04:33:48;23.50;52.40
4960;DHT22;2495;48.200;11.532;2023-07-20T04:38:50;23.60;52.20
4960;DHT22;2495;48.200;11.532;2023-07-20T04:43:51;23.40;52.80
4960;DHT22;2495;48.200;11.532;2023-07-20T04:48:52;23.60;52.60
4960;DHT22;2495;48.200;11.532;2023-07-20T04:53:53;23.60;53.00
4960;DHT22;2495;48.200;11.532;2023-07-20T04:58:55;23.60;53.20
4960;DHT22;2495;48.200;11.532;2023-07-20T05:03:56;23.70;53.70
4960;DHT22;2495;48.200;11.532;2023-07-20T05:08:57;23.60;53.40
4960;DHT22;2495;48.200;11.532;2023-07-20T05:13:59;23.40;53.50
4960;DHT22;2495;48.200;11.532;2023-07-20T05:19:00;23.20;53.70
4960;DHT22;2495;48.200;11.532;2023-07-20T05:24:02;23.20;53.50
4960;DHT22;2495;48.200;11.532;2023-07-20T05:29:03;23.10;53.50
4960;DHT22;2495;48.200;11.532;2023-07-20T05:34:04;23.20;53.40
4960;DHT22;2495;48.200;11.532;2023-07-20T05:39:06;23.20;52.20
4960;DHT22;2495;48.200;11.532;2023-07-20T05:44:07;23.20;51.70
4960;DHT22;2495;48.200;11.532;2023-07-20T05:49:09;23.20;51.50
4960;DHT22;2495;48.200;11.532;2023-07-20T05:54:10;23.20;51.30
4960;DHT22;2495;48.200;11.532;2023-07-20T05:59:11;23.30;50.60
4960;DHT22;2495;48.200;11.532;2023-07-20T06:04:13;23.40;49.70
4960;DHT22;2495;48.200;11.532;2023-07-20T06:09:14;23.50;50.40
4960;DHT22;2495;48.200;11.532;2023-07-20T06:14:15;23.70;49.20
4960;DHT22;2495;48.200;11.532;2023-07-20T06:19:16;23.80;49.50
4960;DHT22;2495;48.200;11.532;2023-07-20T06:24:18;23.90;49.40
4960;DHT22;2495;48.200;11.532;2023-07-20T06:29:19;24.10;49.40
4960;DHT22;2495;48.200;11.532;2023-07-20T06:34:20;24.40;49.00
4960;DHT22;2495;48.200;11.532;2023-07-20T06:39:22;24.50;47.80
4960;DHT22;2495;48.200;11.532;2023-07-20T06:44:23;24.20;47.90
4960;DHT22;2495;48.200;11.532;2023-07-20T06:49:25;23.90;48.30
4960;DHT22;2495;48.200;11.532;2023-07-20T06:54:26;23.80;48.60
4960;DHT22;2495;48.200;11.532;2023-07-20T06:59:28;23.90;48.60
4960;DHT22;2495;48.200;11.532;2023-07-20T07:04:29;24.40;48.20
4960;DHT22;2495;48.200;11.532;2023-07-20T07:09:30;24.90;47.40
4960;DHT22;2495;48.200;11.532;2023-07-20T07:14:31;25.40;47.00
4960;DHT22;2495;48.200;11.532;2023-07-20T07:19:33;25.90;46.00
4960;DHT22;2495;48.200;11.532;2023-07-20T07:24:34;26.00;45.10
4960;DHT22;2495;48.200;11.532;2023-07-20T07:29:35;25.90;44.90
4960;DHT22;2495;48.200;11.532;2023-07-20T07:34:36;25.80;44.90
4960;DHT22;2495;48.200;11.532;2023-07-20T07:39:37;25.90;44.00
4960;DHT22;2495;48.200;11.532;2023-07-20T07:44:39;25.90;43.60
4960;DHT22;2495;48.200;11.532;2023-07-20T07:49:40;25.70;43.70
4960;DHT22;2495;48.200;11.532;2023-07-20T07:54:41;25.70;43.30
4960;DHT22;2495;48.200;11.532;2023-07-20T07:59:42;25.60;43.60
4960;DHT22;2495;48.200;11.532;2023-07-20T08:04:44;25.70;43.60
4960;DHT22;2495;48.200;11.532;2023-07-20T08:09:45;26.00;43.20
4960;DHT22;2495;48.200;11.532;2023-07-20T08:14:46;26.20;43.10
4960;DHT22;2495;48.200;11.532;2023-07-20T08:19:48;26.20;42.80
4960;DHT22;2495;48.200;11.532;2023-07-20T08:24:49;26.60;43.40
4960;DHT22;2495;48.200;11.532;2023-07-20T08:29:50;27.00;42.10
4960;DHT22;2495;48.200;11.532;2023-07-20T08:34:51;27.50;41.80
4960;DHT22;2495;48.200;11.532;2023-07-20T08:39:53;27.90;40.90
4960;DHT22;2495;48.200;11.532;2023-07-20T08:44:54;27.40;39.80
4960;DHT22;2495;48.200;11.532;2023-07-20T08:49:55;27.60;40.50
4960;DHT22;2495;48.200;11.532;2023-07-20T08:54:56;27.40;40.60
4960;DHT22;2495;48.200;11.532;2023-07-20T08:59:58;27.00;40.60
4960;DHT22;2495;48.200;11.532;2023-07-20T09:04:59;27.00;41.30
4960;DHT22;2495;48.200;11.532;2023-07-20T09:10:00;27.90;39.70
4960;DHT22;2495;48.200;11.532;2023-07-20T09:15:01;27.80;39.50
4960;DHT22;2495;48.200;11.532;2023-07-20T09:20:05;27.30;40.40
4960;DHT22;2495;48.200;11.532;2023-07-20T09:25:11;27.60;40.10
4960;DHT22;2495;48.200;11.532;2023-07-20T09:30:11;28.70;38.20
4960;DHT22;2495;48.200;11.532;2023-07-20T09:35:13;29.40;36.00
4960;DHT22;2495;48.200;11.532;2023-07-20T09:40:16;29.50;36.30
4960;DHT22;2495;48.200;11.532;2023-07-20T09:45:18;30.70;35.20
4960;DHT22;2495;48.200;11.532;2023-07-20T09:50:19;31.60;33.70
4960;DHT22;2495;48.200;11.532;2023-07-20T09:55:20;31.10;33.60
4960;DHT22;2495;48.200;11.532;2023-07-20T10:00:22;29.80;35.50
4960;DHT22;2495;48.200;11.532;2023-07-20T10:05:23;30.00;35.60
4960;DHT22;2495;48.200;11.532;2023-07-20T10:10:24;30.80;34.30
4960;DHT22;2495;48.200;11.532;2023-07-20T10:15:40;31.80;33.40
4960;DHT22;2495;48.200;11.532;2023-07-20T10:20:36;32.30;33.90
4960;DHT22;2495;48.200;11.532;2023-07-20T10:25:37;30.70;34.30
4960;DHT22;2495;48.200;11.532;2023-07-20T10:30:38;30.60;34.80
4960;DHT22;2495;48.200;11.532;2023-07-20T10:35:55;30.20;35.70
4960;DHT22;2495;48.200;11.532;2023-07-20T10:40:55;29.40;36.10
4960;DHT22;2495;48.200;11.532;2023-07-20T10:45:57;29.90;35.80
4960;DHT22;2495;48.200;11.532;2023-07-20T10:51:20;29.90;35.70
4960;DHT22;2495;48.200;11.532;2023-07-20T10:56:21;30.40;35.10
4960;DHT22;2495;48.200;11.532;2023-07-20T11:01:27;30.50;35.50
4960;DHT22;2495;48.200;11.532;2023-07-20T11:11:29;30.40;34.90
4960;DHT22;2495;48.200;11.532;2023-07-20T11:16:41;30.20;35.60
4960;DHT22;2495;48.200;11.532;2023-07-20T11:21:42;30.80;35.30
4960;DHT22;2495;48.200;11.532;2023-07-20T11:31:50;30.80;34.60
4960;DHT22;2495;48.200;11.532;2023-07-20T11:36:52;29.70;35.90
4960;DHT22;2495;48.200;11.532;2023-07-20T11:41:56;29.70;35.70
4960;DHT22;2495;48.200;11.532;2023-07-20T11:47:08;29.50;37.10
4960;DHT22;2495;48.200;11.532;2023-07-20T11:52:11;30.30;35.70
4960;DHT22;2495;48.200;11.532;2023-07-20T11:57:18;30.00;35.50
4960;DHT22;2495;48.200;11.532;2023-07-20T12:02:19;29.40;36.20
4960;DHT22;2495;48.200;11.532;2023-07-20T12:07:21;30.20;35.90
4960;DHT22;2495;48.200;11.532;2023-07-20T12:12:22;32.60;33.10
4960;DHT22;2495;48.200;11.532;2023-07-20T12:17:23;32.60;32.30
4960;DHT22;2495;48.200;11.532;2023-07-20T12:22:25;31.60;33.90
4960;DHT22;2495;48.200;11.532;2023-07-20T12:27:27;31.60;33.90
4960;DHT22;2495;48.200;11.532;2023-07-20T12:32:27;31.10;34.20
4960;DHT22;2495;48.200;11.532;2023-07-20T12:37:34;30.80;34.50
4960;DHT22;2495;48.200;11.532;2023-07-20T12:42:36;30.20;35.40
4960;DHT22;2495;48.200;11.532;2023-07-20T12:47:37;30.10;35.60
4960;DHT22;2495;48.200;11.532;2023-07-20T12:52:38;29.90;36.90
4960;DHT22;2495;48.200;11.532;2023-07-20T12:57:40;30.10;36.40
4960;DHT22;2495;48.200;11.532;2023-07-20T13:02:40;29.70;35.70
4960;DHT22;2495;48.200;11.532;2023-07-20T13:07:42;29.60;36.80
4960;DHT22;2495;48.200;11.532;2023-07-20T13:12:43;29.70;36.60
4960;DHT22;2495;48.200;11.532;2023-07-20T13:17:44;29.90;36.10
4960;DHT22;2495;48.200;11.532;2023-07-20T13:22:46;29.80;35.90
4960;DHT22;2495;48.200;11.532;2023-07-20T13:27:47;30.20;36.30
4960;DHT22;2495;48.200;11.532;2023-07-20T13:32:48;30.40;35.30
4960;DHT22;2495;48.200;11.532;2023-07-20T13:37:49;29.70;35.90
4960;DHT22;2495;48.200;11.532;2023-07-20T13:42:51;29.80;36.10
4960;DHT22;2495;48.200;11.532;2023-07-20T13:47:52;30.30;35.80
4960;DHT22;2495;48.200;11.532;2023-07-20T13:52:53;31.10;35.30
4960;DHT22;2495;48.200;11.532;2023-07-20T13:57:54;31.60;33.40
4960;DHT22;2495;48.200;11.532;2023-07-20T14:02:56;31.00;33.80
4960;DHT22;2495;48.200;11.532;2023-07-20T14:07:57;30.40;35.00
4960;DHT22;2495;48.200;11.532;2023-07-20T14:12:58;30.40;35.00
4960;DHT22;2495;48.200;11.532;2023-07-20T14:18:00;30.60;34.70
4960;DHT22;2495;48.200;11.532;2023-07-20T14:23:01;30.10;35.20
4960;DHT22;2495;48.200;11.532;2023-07-20T14:28:02;29.50;36.30
4960;DHT22;2495;48.200;11.532;2023-07-20T14:33:04;30.00;36.20
4960;DHT22;2495;48.200;11.532;2023-07-20T14:38:06;30.00;35.90
4960;DHT22;2495;48.200;11.532;2023-07-20T14:43:07;30.00;36.20
4960;DHT22;2495;48.200;11.532;2023-07-20T14:48:08;29.90;35.80
4960;DHT22;2495;48.200;11.532;2023-07-20T14:53:09;29.90;36.30
4960;DHT22;2495;48.200;11.532;2023-07-20T14:58:11;30.70;35.50
4960;DHT22;2495;48.200;11.532;2023-07-20T15:03:12;31.20;34.20
4960;DHT22;2495;48.200;11.532;2023-07-20T15:08:13;31.40;34.40
4960;DHT22;2495;48.200;11.532;2023-07-20T15:13:15;31.60;34.10
4960;DHT22;2495;48.200;11.532;2023-07-20T15:18:16;31.40;33.70
4960;DHT22;2495;48.200;11.532;2023-07-20T15:23:17;31.50;34.70
4960;DHT22;2495;48.200;11.532;2023-07-20T15:28:19;32.00;34.00
4960;DHT22;2495;48.200;11.532;2023-07-20T15:33:20;32.30;34.90
4960;DHT22;2495;48.200;11.532;2023-07-20T15:38:21;32.30;33.20
4960;DHT22;2495;48.200;11.532;2023-07-20T15:43:22;32.00;33.70
4960;DHT22;2495;48.200;11.532;2023-07-20T15:48:23;32.00;33.30
4960;DHT22;2495;48.200;11.532;2023-07-20T15:53:25;32.20;33.60
4960;DHT22;2495;48.200;11.532;2023-07-20T15:58:26;31.90;33.00
4960;DHT22;2495;48.200;11.532;2023-07-20T16:03:27;31.10;33.30
4960;DHT22;2495;48.200;11.532;2023-07-20T16:08:29;30.50;34.40
4960;DHT22;2495;48.200;11.532;2023-07-20T16:13:30;30.10;34.00
4960;DHT22;2495;48.200;11.532;2023-07-20T16:18:31;29.60;34.70
4960;DHT22;2495;48.200;11.532;2023-07-20T16:23:32;29.30;35.40
4960;DHT22;2495;48.200;11.532;2023-07-20T16:28:33;29.00;36.50
4960;DHT22;2495;48.200;11.532;2023-07-20T16:33:34;29.00;36.10
4960;DHT22;2495;48.200;11.532;2023-07-20T16:38:38;29.40;36.30
4960;DHT22;2495;48.200;11.532;2023-07-20T16:43:40;29.30;36.10
4960;DHT22;2495;48.200;11.532;2023-07-20T16:48:41;29.20;35.70
4960;DHT22;2495;48.200;11.532;2023-07-20T16:53:42;29.10;35.40
4960;DHT22;2495;48.200;11.532;2023-07-20T16:58:43;28.80;35.50
4960;DHT22;2495;48.200;11.532;2023-07-20T17:03:44;28.60;36.40
4960;DHT22;2495;48.200;11.532;2023-07-20T17:08:48;28.60;36.30
4960;DHT22;2495;48.200;11.532;2023-07-20T17:13:52;28.60;36.30
4960;DHT22;2495;48.200;11.532;2023-07-20T17:18:53;28.40;36.20
4960;DHT22;2495;48.200;11.532;2023-07-20T17:23:55;28.30;36.30
4960;DHT22;2495;48.200;11.532;2023-07-20T17:28:56;28.00;36.80
4960;DHT22;2495;48.200;11.532;2023-07-20T17:33:58;28.00;36.70
4960;DHT22;2495;48.200;11.532;2023-07-20T17:39:00;27.90;37.20
4960;DHT22;2495;48.200;11.532;2023-07-20T17:44:01;27.90;37.10
4960;DHT22;2495;48.200;11.532;2023-07-20T17:49:03;28.00;37.80
4960;DHT22;2495;48.200;11.532;2023-07-20T17:54:04;28.00;37.70
4960;DHT22;2495;48.200;11.532;2023-07-20T17:59:06;28.10;37.30
4960;DHT22;2495;48.200;11.532;2023-07-20T18:04:07;28.10;37.20
4960;DHT22;2495;48.200;11.532;2023-07-20T18:09:08;28.00;37.90
4960;DHT22;2495;48.200;11.532;2023-07-20T18:14:09;28.10;37.50
4960;DHT22;2495;48.200;11.532;2023-07-20T18:19:11;27.80;37.40
4960;DHT22;2495;48.200;11.532;2023-07-20T18:24:12;27.60;37.60
4960;DHT22;2495;48.200;11.532;2023-07-20T18:29:14;27.20;38.60
4960;DHT22;2495;48.200;11.532;2023-07-20T18:34:15;27.20;39.20
4960;DHT22;2495;48.200;11.532;2023-07-20T18:39:16;27.40;38.70
4960;DHT22;2495;48.200;11.532;2023-07-20T18:44:17;27.50;38.20
4960;DHT22;2495;48.200;11.532;2023-07-20T18:49:19;27.30;38.50
4960;DHT22;2495;48.200;11.532;2023-07-20T18:54:20;27.30;38.20
4960;DHT22;2495;48.200;11.532;2023-07-20T18:59:21;27.10;38.10
4960;DHT22;2495;48.200;11.532;2023-07-20T19:04:22;26.80;38.30
4960;DHT22;2495;48.200;11.532;2023-07-20T19:09:23;26.60;38.60
4960;DHT22;2495;48.200;11.532;2023-07-20T19:14:25;26.30;39.40
4960;DHT22;2495;48.200;11.532;2023-07-20T19:19:27;26.40;39.10
4960;DHT22;2495;48.200;11.532;2023-07-20T19:24:27;26.20;39.40
4960;DHT22;2495;48.200;11.532;2023-07-20T19:29:28;26.10;40.10
4960;DHT22;2495;48.200;11.532;2023-07-20T19:34:29;25.90;40.70
4960;DHT22;2495;48.200;11.532;2023-07-20T19:39:31;25.80;41.50
4960;DHT22;2495;48.200;11.532;2023-07-20T19:44:32;25.70;42.10
4960;DHT22;2495;48.200;11.532;2023-07-20T19:49:33;25.60;42.20
4960;DHT22;2495;48.200;11.532;2023-07-20T19:54:34;25.70;41.80
4960;DHT22;2495;48.200;11.532;2023-07-20T19:59:36;25.70;42.30
4960;DHT22;2495;48.200;11.532;2023-07-20T20:04:37;25.70;42.00
4960;DHT22;2495;48.200;11.532;2023-07-20T20:09:38;25.90;41.60
4960;DHT22;2495;48.200;11.532;2023-07-20T20:14:40;25.80;41.70
4960;DHT22;2495;48.200;11.532;2023-07-20T20:19:41;25.70;42.10
4960;DHT22;2495;48.200;11.532;2023-07-20T20:24:42;25.50;42.70
4960;DHT22;2495;48.200;11.532;2023-07-20T20:29:43;25.60;42.80
4960;DHT22;2495;48.200;11.532;2023-07-20T20:34:45;25.70;42.40
4960;DHT22;2495;48.200;11.532;2023-07-20T20:39:46;25.60;42.90
4960;DHT22;2495;48.200;11.532;2023-07-20T20:44:47;25.60;43.10
4960;DHT22;2495;48.200;11.532;2023-07-20T20:49:48;25.50;42.50
4960;DHT22;2495;48.200;11.532;2023-07-20T20:54:49;25.20;42.50
4960;DHT22;2495;48.200;11.532;2023-07-20T20:59:51;24.90;43.30
4960;DHT22;2495;48.200;11.532;2023-07-20T21:04:52;25.00;43.60
4960;DHT22;2495;48.200;11.532;2023-07-20T21:09:54;24.80;44.80
4960;DHT22;2495;48.200;11.532;2023-07-20T21:14:55;24.80;44.00
4960;DHT22;2495;48.200;11.532;2023-07-20T21:19:56;24.60;44.50
4960;DHT22;2495;48.200;11.532;2023-07-20T21:24:58;24.30;45.70
4960;DHT22;2495;48.200;11.532;2023-07-20T21:29:59;24.30;45.90
4960;DHT22;2495;48.200;11.532;2023-07-20T21:35:00;24.40;45.70
4960;DHT22;2495;48.200;11.532;2023-07-20T21:40:02;24.20;46.50
4960;DHT22;2495;48.200;11.532;2023-07-20T21:45:03;24.30;46.30
4960;DHT22;2495;48.200;11.532;2023-07-20T21:50:05;24.10;47.00
4960;DHT22;2495;48.200;11.532;2023-07-20T21:55:06;24.20;46.60
4960;DHT22;2495;48.200;11.532;2023-07-20T22:00:08;24.00;47.00
4960;DHT22;2495;48.200;11.532;2023-07-20T22:05:10;23.80;47.40
4960;DHT22;2495;48.200;11.532;2023-07-20T22:10:11;23.50;48.10
4960;DHT22;2495;48.200;11.532;2023-07-20T22:15:13;23.50;48.60
4960;DHT22;2495;48.200;11.532;2023-07-20T22:20:15;23.40;48.40
4960;DHT22;2495;48.200;11.532;2023-07-20T22:25:16;23.30;49.00
4960;DHT22;2495;48.200;11.532;2023-07-20T22:30:17;23.30;49.90
4960;DHT22;2495;48.200;11.532;2023-07-20T22:35:19;23.40;49.30
4960;DHT22;2495;48.200;11.532;2023-07-20T22:40:20;23.30;50.10
4960;DHT22;2495;48.200;11.532;2023-07-20T22:45:21;23.30;49.80
4960;DHT22;2495;48.200;11.532;2023-07-20T22:50:22;23.20;50.80
4960;DHT22;2495;48.200;11.532;2023-07-20T22:55:24;23.20;50.50
4960;DHT22;2495;48.200;11.532;2023-07-20T23:00:25;23.00;50.40
4960;DHT22;2495;48.200;11.532;2023-07-20T23:05:26;22.90;51.20
4960;DHT22;2495;48.200;11.532;2023-07-20T23:10:27;23.00;50.20
4960;DHT22;2495;48.200;11.532;2023-07-20T23:15:28;22.90;51.00
4960;DHT22;2495;48.200;11.532;2023-07-20T23:20:30;23.00;50.30
4960;DHT22;2495;48.200;11.532;2023-07-20T23:25:31;22.80;50.50
4960;DHT22;2495;48.200;11.532;2023-07-20T23:30:33;22.80;51.50
4960;DHT22;2495;48.200;11.532;2023-07-20T23:35:34;22.70;51.10
4960;DHT22;2495;48.200;11.532;2023-07-20T23:40:36;22.50;52.70
4960;DHT22;2495;48.200;11.532;2023-07-20T23:45:37;22.50;52.60
4960;DHT22;2495;48.200;11.532;2023-07-20T23:50:41;22.60;52.40
4960;DHT22;2495;48.200;11.532;2023-07-20T23:55:45;22.50;53.30
